Time;durP1;ratioP1;P1;durP2;ratioP2;P2;SDS_P1;SDS_P2;PMS_P1;PMS_P2;Temp;Humidity;BMP_temperature;BMP_pressure;BME280_temperature;BME280_humidity;BME280_pressure;Samples;Min_cycle;Max_cycle;Signal;HPM_P1;HPM_P2
2021/12/01 08:16:09;;;;;;;6.73;3.90;;;9.30;99.90;;;;;;5109205;27;20388;-76
2021/12/01 08:18:36;;;;;;;6.10;4.10;;;9.30;99.90;;;;;;5105428;28;20056;-73
2021/12/01 08:21:01;;;;;;;7.17;4.97;;;9.30;99.90;;;;;;5101183;28;20074;-76
2021/12/01 08:23:27;;;;;;;5.27;4.50;;;9.30;99.90;;;;;;5100647;28;20467;-74
2021/12/01 08:25:53;;;;;;;6.67;4.53;;;9.40;99.90;;;;;;5104594;28;20113;-71
2021/12/01 08:28:18;;;;;;;8.87;5.53;;;9.40;99.90;;;;;;5104471;28;20495;-73
2021/12/01 08:30:44;;;;;;;5.90;4.40;;;9.40;99.90;;;;;;5085034;28;20098;-73
2021/12/01 08:33:10;;;;;;;5.00;3.73;;;9.50;99.90;;;;;;5084512;28;20060;-73
2021/12/01 08:35:40;;;;;;;8.73;4.30;;;9.50;99.90;;;;;;5084846;28;20051;-75
2021/12/01 08:38:05;;;;;;;6.00;4.00;;;9.50;99.90;;;;;;5083228;28;20052;-73
2021/12/01 08:40:31;;;;;;;8.60;4.00;;;9.60;99.90;;;;;;5083614;28;20124;-74
2021/12/01 08:42:56;;;;;;;5.97;3.70;;;9.60;99.90;;;;;;5084903;28;20040;-75
2021/12/01 08:45:26;;;;;;;4.67;2.43;;;9.70;99.90;;;;;;5083491;28;20608;-73
2021/12/01 08:47:52;;;;;;;5.07;2.57;;;9.70;99.90;;;;;;5083739;28;20464;-77
2021/12/01 08:50:18;;;;;;;3.10;2.00;;;9.70;99.90;;;;;;5083736;28;20076;-73
2021/12/01 08:52:45;;;;;;;4.10;1.93;;;9.70;99.90;;;;;;5084240;28;20131;-74
2021/12/01 08:55:11;;;;;;;8.17;2.10;;;9.80;99.90;;;;;;5085078;28;20048;-73
2021/12/01 08:57:36;;;;;;;3.63;1.70;;;9.80;99.90;;;;;;5083575;28;20048;-73
2021/12/01 09:00:05;;;;;;;6.27;1.83;;;9.80;99.90;;;;;;5082932;28;20380;-75
2021/12/01 09:02:30;;;;;;;6.40;1.80;;;9.90;99.90;;;;;;5084729;28;20067;-73
2021/12/01 09:04:56;;;;;;;8.93;1.80;;;9.90;99.90;;;;;;5084720;28;20492;-73
2021/12/01 09:07:22;;;;;;;6.00;1.40;;;9.90;99.90;;;;;;5082896;28;20056;-74
2021/12/01 09:09:47;;;;;;;9.00;1.80;;;10.00;99.90;;;;;;5084242;28;20044;-75
2021/12/01 09:12:14;;;;;;;7.53;1.70;;;10.00;99.90;;;;;;5085008;28;20101;-74
2021/12/01 09:14:41;;;;;;;7.23;1.60;;;10.00;99.90;;;;;;5083301;28;20048;-76
2021/12/01 09:17:09;;;;;;;10.10;2.40;;;10.00;99.90;;;;;;5084261;28;20488;-74
2021/12/01 09:19:35;;;;;;;5.40;1.20;;;10.00;99.90;;;;;;5082941;28;20048;-73
2021/12/01 09:22:01;;;;;;;9.13;1.40;;;10.00;99.90;;;;;;5082393;28;20157;-72
2021/12/01 09:24:27;;;;;;;8.13;1.80;;;10.00;99.90;;;;;;5082860;28;20110;-71
2021/12/01 09:26:52;;;;;;;5.23;1.33;;;10.00;99.90;;;;;;5074694;28;20121;-71
2021/12/01 09:29:18;;;;;;;7.63;1.40;;;10.00;99.90;;;;;;5070316;28;20090;-72
2021/12/01 09:31:44;;;;;;;9.70;1.77;;;10.10;99.90;;;;;;5070935;28;20135;-72
2021/12/01 09:34:09;;;;;;;5.53;1.60;;;10.00;99.90;;;;;;5069833;28;20515;-78
2021/12/01 09:36:35;;;;;;;7.03;1.10;;;10.00;99.90;;;;;;5068843;28;20181;-71
2021/12/01 09:39:01;;;;;;;6.90;1.50;;;10.00;99.90;;;;;;5070877;28;20033;-73
2021/12/01 09:41:26;;;;;;;8.67;1.53;;;10.00;99.90;;;;;;5068842;28;20408;-76
2021/12/01 09:43:52;;;;;;;7.33;1.10;;;9.90;99.90;;;;;;5070199;28;20036;-77
2021/12/01 09:46:18;;;;;;;7.00;1.00;;;9.90;99.90;;;;;;5070184;28;20044;-76
2021/12/01 09:48:44;;;;;;;7.00;1.17;;;9.80;99.90;;;;;;5069812;28;20056;-74
2021/12/01 09:51:16;;;;;;;5.50;1.13;;;9.80;99.90;;;;;;5071064;28;20040;-78
2021/12/01 09:53:44;;;;;;;4.83;1.10;;;9.80;99.90;;;;;;5069747;28;20146;-83
2021/12/01 09:56:09;;;;;;;7.17;1.00;;;9.80;99.90;;;;;;5069233;28;20044;-75
2021/12/01 09:58:36;;;;;;;9.50;1.87;;;9.80;99.90;;;;;;5070557;28;20092;-75
2021/12/01 10:01:12;;;;;;;7.80;1.03;;;9.90;99.90;;;;;;5086936;28;20052;-74
2021/12/01 10:03:39;;;;;;;7.80;1.47;;;9.90;99.90;;;;;;5088627;28;20048;-77
2021/12/01 10:06:17;;;;;;;9.07;1.60;;;9.90;99.90;;;;;;5091203;28;20048;-75
2021/12/01 10:08:45;;;;;;;10.00;1.33;;;9.90;99.90;;;;;;5090657;28;20055;-80
2021/12/01 10:11:14;;;;;;;9.43;2.60;;;9.90;99.90;;;;;;5089133;28;20036;-78
2021/12/01 10:13:43;;;;;;;9.07;1.50;;;10.00;99.90;;;;;;5089326;28;20437;-73
2021/12/01 10:16:12;;;;;;;10.23;1.70;;;10.00;99.90;;;;;;5089406;28;20052;-74
2021/12/01 10:18:49;;;;;;;11.30;1.67;;;10.00;99.90;;;;;;5089566;28;20043;-76
2021/12/01 10:21:21;;;;;;;7.43;1.43;;;10.00;99.90;;;;;;5069014;28;20095;-77
2021/12/01 10:23:56;;;;;;;10.70;1.80;;;10.00;99.90;;;;;;5070675;28;20051;-83
2021/12/01 10:26:23;;;;;;;13.47;2.13;;;10.00;99.90;;;;;;5090708;28;20040;-76
2021/12/01 10:28:52;;;;;;;10.73;1.33;;;10.00;99.90;;;;;;5088932;28;20047;-74
2021/12/01 10:31:51;;;;;;;8.73;1.40;;;10.00;99.90;;;;;;5089822;28;20032;-72
2021/12/01 10:34:26;;;;;;;16.00;2.27;;;10.00;99.90;;;;;;5088389;28;20044;-80
2021/12/01 10:37:23;;;;;;;9.17;1.50;;;10.10;99.90;;;;;;5089197;28;20056;-72
2021/12/01 10:40:11;;;;;;;16.40;2.20;;;10.10;99.90;;;;;;5089243;28;20090;-75
2021/12/01 10:42:57;;;;;;;15.67;2.20;;;10.00;99.90;;;;;;5088681;28;20051;-73
2021/12/01 10:45:29;;;;;;;11.77;1.70;;;10.00;99.90;;;;;;5088124;28;20637;-75
2021/12/01 10:47:55;;;;;;;;;;;10.00;99.90;;;;;;5089667;28;20043;-74
2021/12/01 10:50:23;;;;;;;10.03;1.83;;;10.00;99.90;;;;;;5090213;28;19923;-74
2021/12/01 10:52:52;;;;;;;14.87;2.00;;;9.90;99.90;;;;;;5089722;28;20040;-75
2021/12/01 10:55:25;;;;;;;9.20;1.87;;;9.90;99.90;;;;;;5088556;28;20164;-74
2021/12/01 10:57:57;;;;;;;15.87;1.83;;;9.90;99.90;;;;;;5089735;28;20119;-75
2021/12/01 11:00:28;;;;;;;8.33;1.20;;;9.80;99.90;;;;;;5089068;28;20079;-75
2021/12/01 11:03:07;;;;;;;11.05;1.38;;;9.80;99.90;;;;;;5088536;28;20480;-74
2021/12/01 11:05:37;;;;;;;8.57;1.60;;;9.70;99.90;;;;;;5088701;28;20102;-77
2021/12/01 11:08:14;;;;;;;8.43;1.30;;;9.70;99.90;;;;;;5089061;28;20043;-75
2021/12/01 11:10:42;;;;;;;11.03;1.60;;;9.60;99.90;;;;;;5088082;28;20052;-76
